sensor_id;sensor_type;location;lat;lon;timestamp;P1;durP1;ratioP1;P2;durP2;ratioP2
72949;SDS011;64868;45.710;9.590;2023-03-30T00:01:56;12.80;;;4.10;;
72949;SDS011;64868;45.710;9.590;2023-03-30T00:04:24;8.95;;;3.80;;
72949;SDS011;64868;45.710;9.590;2023-03-30T00:06:56;12.98;;;4.00;;
72949;SDS011;64868;45.710;9.590;2023-03-30T00:09:27;12.05;;;3.83;;
72949;SDS011;64868;45.710;9.590;2023-03-30T00:11:59;10.07;;;3.92;;
72949;SDS011;64868;45.710;9.590;2023-03-30T00:14:32;10.98;;;4.30;;
72949;SDS011;64868;45.710;9.590;2023-03-30T00:17:07;11.07;;;4.28;;
72949;SDS011;64868;45.710;9.590;2023-03-30T00:19:40;13.57;;;3.65;;
72949;SDS011;64868;45.710;9.590;2023-03-30T00:22:13;9.27;;;3.90;;
72949;SDS011;64868;45.710;9.590;2023-03-30T00:24:45;9.40;;;3.72;;
72949;SDS011;64868;45.710;9.590;2023-03-30T00:27:15;11.02;;;3.45;;
72949;SDS011;64868;45.710;9.590;2023-03-30T00:29:45;11.60;;;4.32;;
72949;SDS011;64868;45.710;9.590;2023-03-30T00:32:18;9.70;;;3.50;;
72949;SDS011;64868;45.710;9.590;2023-03-30T00:34:48;7.65;;;3.40;;
72949;SDS011;64868;45.710;9.590;2023-03-30T00:37:18;6.97;;;3.13;;
72949;SDS011;64868;45.710;9.590;2023-03-30T00:39:51;11.75;;;3.30;;
72949;SDS011;64868;45.710;9.590;2023-03-30T00:42:21;12.70;;;3.72;;
72949;SDS011;64868;45.710;9.590;2023-03-30T00:50:34;9.57;;;3.88;;
72949;SDS011;64868;45.710;9.590;2023-03-30T00:53:09;7.78;;;3.10;;
72949;SDS011;64868;45.710;9.590;2023-03-30T00:55:41;7.30;;;3.20;;
72949;SDS011;64868;45.710;9.590;2023-03-30T00:58:10;8.25;;;3.38;;
72949;SDS011;64868;45.710;9.590;2023-03-30T01:00:39;9.65;;;3.40;;
72949;SDS011;64868;45.710;9.590;2023-03-30T01:03:13;9.40;;;3.55;;
72949;SDS011;64868;45.710;9.590;2023-03-30T01:05:48;9.02;;;3.63;;
72949;SDS011;64868;45.710;9.590;2023-03-30T01:08:23;10.35;;;3.63;;
72949;SDS011;64868;45.710;9.590;2023-03-30T01:10:58;11.95;;;4.00;;
72949;SDS011;64868;45.710;9.590;2023-03-30T01:13:30;11.95;;;3.53;;
72949;SDS011;64868;45.710;9.590;2023-03-30T01:16:17;11.07;;;3.65;;
72949;SDS011;64868;45.710;9.590;2023-03-30T01:39:06;9.77;;;3.40;;
72949;SDS011;64868;45.710;9.590;2023-03-30T01:41:50;10.93;;;3.50;;
72949;SDS011;64868;45.710;9.590;2023-03-30T01:47:08;10.13;;;3.55;;
72949;SDS011;64868;45.710;9.590;2023-03-30T01:49:54;9.63;;;3.08;;
72949;SDS011;64868;45.710;9.590;2023-03-30T01:55:25;10.63;;;3.17;;
72949;SDS011;64868;45.710;9.590;2023-03-30T01:58:01;7.13;;;2.90;;
72949;SDS011;64868;45.710;9.590;2023-03-30T02:00:39;9.05;;;3.33;;
72949;SDS011;64868;45.710;9.590;2023-03-30T02:03:14;9.32;;;3.22;;
72949;SDS011;64868;45.710;9.590;2023-03-30T02:05:49;7.95;;;3.30;;
72949;SDS011;64868;45.710;9.590;2023-03-30T02:08:21;11.65;;;3.75;;
72949;SDS011;64868;45.710;9.590;2023-03-30T02:10:54;7.10;;;3.00;;
72949;SDS011;64868;45.710;9.590;2023-03-30T02:13:29;10.57;;;3.45;;
72949;SDS011;64868;45.710;9.590;2023-03-30T02:16:02;7.65;;;3.17;;
72949;SDS011;64868;45.710;9.590;2023-03-30T02:18:48;9.85;;;3.10;;
72949;SDS011;64868;45.710;9.590;2023-03-30T02:21:21;10.02;;;3.47;;
72949;SDS011;64868;45.710;9.590;2023-03-30T02:23:53;10.52;;;2.83;;
72949;SDS011;64868;45.710;9.590;2023-03-30T02:26:25;8.93;;;3.20;;
72949;SDS011;64868;45.710;9.590;2023-03-30T02:28:57;10.07;;;2.88;;
72949;SDS011;64868;45.710;9.590;2023-03-30T02:31:25;7.78;;;3.08;;
72949;SDS011;64868;45.710;9.590;2023-03-30T02:42:37;7.53;;;3.00;;
72949;SDS011;64868;45.710;9.590;2023-03-30T02:56:44;10.43;;;3.03;;
72949;SDS011;64868;45.710;9.590;2023-03-30T02:59:21;9.85;;;2.88;;
72949;SDS011;64868;45.710;9.590;2023-03-30T03:01:56;9.80;;;3.28;;
72949;SDS011;64868;45.710;9.590;2023-03-30T03:04:30;9.63;;;3.10;;
72949;SDS011;64868;45.710;9.590;2023-03-30T03:07:03;9.43;;;3.40;;
72949;SDS011;64868;45.710;9.590;2023-03-30T03:09:36;8.30;;;2.72;;
72949;SDS011;64868;45.710;9.590;2023-03-30T03:12:06;9.02;;;2.88;;
72949;SDS011;64868;45.710;9.590;2023-03-30T03:14:39;8.02;;;2.90;;
72949;SDS011;64868;45.710;9.590;2023-03-30T03:17:11;10.32;;;3.60;;
72949;SDS011;64868;45.710;9.590;2023-03-30T03:19:44;8.70;;;2.90;;
72949;SDS011;64868;45.710;9.590;2023-03-30T03:22:17;10.77;;;2.55;;
72949;SDS011;64868;45.710;9.590;2023-03-30T03:24:44;6.93;;;2.63;;
72949;SDS011;64868;45.710;9.590;2023-03-30T03:27:12;9.10;;;2.88;;
72949;SDS011;64868;45.710;9.590;2023-03-30T03:29:44;9.00;;;2.75;;
72949;SDS011;64868;45.710;9.590;2023-03-30T03:32:17;7.47;;;2.50;;
72949;SDS011;64868;45.710;9.590;2023-03-30T03:34:50;8.02;;;2.88;;
72949;SDS011;64868;45.710;9.590;2023-03-30T03:37:22;13.23;;;3.28;;
72949;SDS011;64868;45.710;9.590;2023-03-30T03:39:55;7.95;;;3.13;;
72949;SDS011;64868;45.710;9.590;2023-03-30T03:42:27;12.60;;;3.00;;
72949;SDS011;64868;45.710;9.590;2023-03-30T03:45:00;8.55;;;2.78;;
72949;SDS011;64868;45.710;9.590;2023-03-30T03:47:31;9.75;;;3.20;;
72949;SDS011;64868;45.710;9.590;2023-03-30T03:50:00;12.13;;;2.92;;
72949;SDS011;64868;45.710;9.590;2023-03-30T03:52:33;9.80;;;3.17;;
72949;SDS011;64868;45.710;9.590;2023-03-30T03:55:05;7.70;;;2.67;;
72949;SDS011;64868;45.710;9.590;2023-03-30T03:57:37;11.02;;;3.30;;
72949;SDS011;64868;45.710;9.590;2023-03-30T04:00:08;10.15;;;3.63;;
72949;SDS011;64868;45.710;9.590;2023-03-30T04:02:45;9.77;;;3.60;;
72949;SDS011;64868;45.710;9.590;2023-03-30T04:05:15;7.72;;;2.88;;
72949;SDS011;64868;45.710;9.590;2023-03-30T04:07:45;11.85;;;2.95;;
72949;SDS011;64868;45.710;9.590;2023-03-30T04:10:15;8.18;;;3.33;;
72949;SDS011;64868;45.710;9.590;2023-03-30T04:12:48;10.63;;;3.25;;
72949;SDS011;64868;45.710;9.590;2023-03-30T04:15:16;9.65;;;3.03;;
72949;SDS011;64868;45.710;9.590;2023-03-30T04:17:44;9.10;;;2.83;;
72949;SDS011;64868;45.710;9.590;2023-03-30T04:20:16;10.77;;;3.28;;
72949;SDS011;64868;45.710;9.590;2023-03-30T04:22:49;11.60;;;3.17;;
72949;SDS011;64868;45.710;9.590;2023-03-30T04:25:22;12.15;;;2.90;;
72949;SDS011;64868;45.710;9.590;2023-03-30T04:27:55;9.02;;;3.17;;
72949;SDS011;64868;45.710;9.590;2023-03-30T04:30:23;12.38;;;3.42;;
72949;SDS011;64868;45.710;9.590;2023-03-30T04:32:56;12.15;;;2.80;;
72949;SDS011;64868;45.710;9.590;2023-03-30T04:35:34;16.15;;;3.15;;
72949;SDS011;64868;45.710;9.590;2023-03-30T04:38:06;11.52;;;3.22;;
72949;SDS011;64868;45.710;9.590;2023-03-30T04:40:39;11.27;;;3.28;;
72949;SDS011;64868;45.710;9.590;2023-03-30T04:43:12;11.93;;;2.97;;
72949;SDS011;64868;45.710;9.590;2023-03-30T04:45:46;12.27;;;3.22;;
72949;SDS011;64868;45.710;9.590;2023-03-30T04:48:17;15.57;;;3.35;;
72949;SDS011;64868;45.710;9.590;2023-03-30T04:50:46;10.10;;;3.22;;
72949;SDS011;64868;45.710;9.590;2023-03-30T04:53:17;15.40;;;3.13;;
72949;SDS011;64868;45.710;9.590;2023-03-30T04:55:49;9.50;;;2.67;;
72949;SDS011;64868;45.710;9.590;2023-03-30T04:58:22;10.10;;;3.05;;
72949;SDS011;64868;45.710;9.590;2023-03-30T05:00:53;11.93;;;2.97;;
72949;SDS011;64868;45.710;9.590;2023-03-30T05:03:26;7.88;;;2.85;;
72949;SDS011;64868;45.710;9.590;2023-03-30T05:05:58;6.57;;;2.33;;
72949;SDS011;64868;45.710;9.590;2023-03-30T05:08:29;10.90;;;3.00;;
72949;SDS011;64868;45.710;9.590;2023-03-30T05:11:01;11.13;;;3.25;;
72949;SDS011;64868;45.710;9.590;2023-03-30T05:13:34;10.20;;;2.80;;
72949;SDS011;64868;45.710;9.590;2023-03-30T05:16:07;13.07;;;3.00;;
72949;SDS011;64868;45.710;9.590;2023-03-30T05:18:37;7.95;;;3.00;;
72949;SDS011;64868;45.710;9.590;2023-03-30T05:21:09;15.75;;;3.35;;
72949;SDS011;64868;45.710;9.590;2023-03-30T05:23:40;8.35;;;2.85;;
72949;SDS011;64868;45.710;9.590;2023-03-30T05:26:12;13.65;;;3.00;;
72949;SDS011;64868;45.710;9.590;2023-03-30T05:28:45;12.85;;;3.05;;
72949;SDS011;64868;45.710;9.590;2023-03-30T05:31:15;11.32;;;3.20;;
72949;SDS011;64868;45.710;9.590;2023-03-30T05:33:45;12.10;;;3.00;;
72949;SDS011;64868;45.710;9.590;2023-03-30T05:36:18;12.30;;;3.33;;
72949;SDS011;64868;45.710;9.590;2023-03-30T05:38:48;11.45;;;3.38;;
72949;SDS011;64868;45.710;9.590;2023-03-30T05:41:21;10.80;;;3.20;;
72949;SDS011;64868;45.710;9.590;2023-03-30T05:43:53;10.05;;;3.10;;
72949;SDS011;64868;45.710;9.590;2023-03-30T05:46:26;7.40;;;2.58;;
72949;SDS011;64868;45.710;9.590;2023-03-30T05:48:54;8.25;;;3.22;;
72949;SDS011;64868;45.710;9.590;2023-03-30T05:51:27;9.35;;;2.67;;
72949;SDS011;64868;45.710;9.590;2023-03-30T05:53:59;8.52;;;3.15;;
72949;SDS011;64868;45.710;9.590;2023-03-30T05:56:32;12.00;;;3.55;;
72949;SDS011;64868;45.710;9.590;2023-03-30T05:59:05;9.15;;;3.42;;
72949;SDS011;64868;45.710;9.590;2023-03-30T06:01:33;9.02;;;3.10;;
72949;SDS011;64868;45.710;9.590;2023-03-30T06:04:03;11.48;;;3.55;;
72949;SDS011;64868;45.710;9.590;2023-03-30T06:06:33;12.05;;;3.25;;
72949;SDS011;64868;45.710;9.590;2023-03-30T06:09:06;11.13;;;3.55;;
72949;SDS011;64868;45.710;9.590;2023-03-30T06:11:38;12.20;;;4.03;;
72949;SDS011;64868;45.710;9.590;2023-03-30T06:14:06;13.82;;;3.70;;
72949;SDS011;64868;45.710;9.590;2023-03-30T06:16:37;10.10;;;3.70;;
72949;SDS011;64868;45.710;9.590;2023-03-30T06:19:09;12.10;;;4.28;;
72949;SDS011;64868;45.710;9.590;2023-03-30T06:21:39;12.10;;;3.80;;
72949;SDS011;64868;45.710;9.590;2023-03-30T06:24:12;11.48;;;4.18;;
72949;SDS011;64868;45.710;9.590;2023-03-30T06:26:45;10.45;;;4.07;;
72949;SDS011;64868;45.710;9.590;2023-03-30T06:29:15;9.63;;;4.18;;
72949;SDS011;64868;45.710;9.590;2023-03-30T06:31:48;16.10;;;4.05;;
72949;SDS011;64868;45.710;9.590;2023-03-30T06:34:21;9.63;;;4.00;;
72949;SDS011;64868;45.710;9.590;2023-03-30T06:36:53;10.90;;;3.58;;
72949;SDS011;64868;45.710;9.590;2023-03-30T06:39:24;11.10;;;4.28;;
72949;SDS011;64868;45.710;9.590;2023-03-30T06:41:57;12.43;;;4.80;;
72949;SDS011;64868;45.710;9.590;2023-03-30T06:44:29;12.30;;;3.88;;
72949;SDS011;64868;45.710;9.590;2023-03-30T06:46:59;11.95;;;4.13;;
72949;SDS011;64868;45.710;9.590;2023-03-30T06:49:32;10.30;;;4.25;;
72949;SDS011;64868;45.710;9.590;2023-03-30T06:52:05;13.27;;;4.80;;
72949;SDS011;64868;45.710;9.590;2023-03-30T06:54:37;13.75;;;4.53;;
72949;SDS011;64868;45.710;9.590;2023-03-30T06:57:07;10.13;;;4.65;;
72949;SDS011;64868;45.710;9.590;2023-03-30T06:59:40;14.18;;;4.25;;
72949;SDS011;64868;45.710;9.590;2023-03-30T07:02:16;12.95;;;5.03;;
72949;SDS011;64868;45.710;9.590;2023-03-30T07:04:46;11.60;;;4.68;;
72949;SDS011;64868;45.710;9.590;2023-03-30T07:07:18;11.60;;;4.38;;
72949;SDS011;64868;45.710;9.590;2023-03-30T07:09:50;10.18;;;4.85;;
72949;SDS011;64868;45.710;9.590;2023-03-30T07:12:20;11.27;;;5.32;;
72949;SDS011;64868;45.710;9.590;2023-03-30T07:14:48;15.32;;;5.28;;
72949;SDS011;64868;45.710;9.590;2023-03-30T07:17:18;11.18;;;5.13;;
72949;SDS011;64868;45.710;9.590;2023-03-30T07:19:50;13.65;;;5.20;;
72949;SDS011;64868;45.710;9.590;2023-03-30T07:22:20;13.88;;;4.82;;
72949;SDS011;64868;45.710;9.590;2023-03-30T07:24:50;13.95;;;4.72;;
72949;SDS011;64868;45.710;9.590;2023-03-30T07:27:23;12.13;;;5.60;;
72949;SDS011;64868;45.710;9.590;2023-03-30T07:29:55;12.85;;;5.65;;
72949;SDS011;64868;45.710;9.590;2023-03-30T07:32:28;16.48;;;5.38;;
72949;SDS011;64868;45.710;9.590;2023-03-30T07:34:58;12.25;;;5.43;;
72949;SDS011;64868;45.710;9.590;2023-03-30T07:37:31;15.25;;;6.18;;
72949;SDS011;64868;45.710;9.590;2023-03-30T07:40:01;15.57;;;5.40;;
72949;SDS011;64868;45.710;9.590;2023-03-30T07:42:35;17.38;;;6.20;;
72949;SDS011;64868;45.710;9.590;2023-03-30T07:45:07;14.07;;;6.05;;
72949;SDS011;64868;45.710;9.590;2023-03-30T07:47:41;13.55;;;5.72;;
72949;SDS011;64868;45.710;9.590;2023-03-30T07:50:11;14.15;;;5.28;;
72949;SDS011;64868;45.710;9.590;2023-03-30T07:52:44;15.57;;;5.72;;
72949;SDS011;64868;45.710;9.590;2023-03-30T07:55:14;15.38;;;6.35;;
72949;SDS011;64868;45.710;9.590;2023-03-30T07:57:46;17.75;;;6.68;;
72949;SDS011;64868;45.710;9.590;2023-03-30T08:00:19;14.63;;;5.88;;
72949;SDS011;64868;45.710;9.590;2023-03-30T08:02:50;11.55;;;5.25;;
72949;SDS011;64868;45.710;9.590;2023-03-30T08:05:20;14.02;;;5.25;;
72949;SDS011;64868;45.710;9.590;2023-03-30T08:07:51;14.18;;;5.10;;
72949;SDS011;64868;45.710;9.590;2023-03-30T08:10:23;14.07;;;4.85;;
72949;SDS011;64868;45.710;9.590;2023-03-30T08:12:56;15.43;;;4.88;;
72949;SDS011;64868;45.710;9.590;2023-03-30T08:15:26;14.70;;;5.70;;
72949;SDS011;64868;45.710;9.590;2023-03-30T08:17:59;10.65;;;5.82;;
72949;SDS011;64868;45.710;9.590;2023-03-30T08:20:30;19.67;;;5.93;;
72949;SDS011;64868;45.710;9.590;2023-03-30T08:23:03;15.60;;;6.35;;
72949;SDS011;64868;45.710;9.590;2023-03-30T08:25:34;14.32;;;6.43;;
72949;SDS011;64868;45.710;9.590;2023-03-30T08:28:06;13.40;;;7.20;;
72949;SDS011;64868;45.710;9.590;2023-03-30T08:30:39;17.77;;;7.43;;
72949;SDS011;64868;45.710;9.590;2023-03-30T08:33:09;14.00;;;6.18;;
72949;SDS011;64868;45.710;9.590;2023-03-30T08:35:41;17.70;;;6.45;;
72949;SDS011;64868;45.710;9.590;2023-03-30T08:38:15;16.20;;;5.60;;
72949;SDS011;64868;45.710;9.590;2023-03-30T08:40:48;15.38;;;6.25;;
72949;SDS011;64868;45.710;9.590;2023-03-30T08:46:23;11.82;;;5.72;;
72949;SDS011;64868;45.710;9.590;2023-03-30T08:48:57;18.02;;;7.05;;
72949;SDS011;64868;45.710;9.590;2023-03-30T08:51:32;17.88;;;6.80;;
72949;SDS011;64868;45.710;9.590;2023-03-30T08:54:05;17.73;;;6.85;;
72949;SDS011;64868;45.710;9.590;2023-03-30T08:56:43;14.70;;;6.40;;
72949;SDS011;64868;45.710;9.590;2023-03-30T08:59:32;13.05;;;6.10;;
72949;SDS011;64868;45.710;9.590;2023-03-30T09:02:20;14.30;;;6.00;;
72949;SDS011;64868;45.710;9.590;2023-03-30T09:05:00;17.63;;;6.85;;
72949;SDS011;64868;45.710;9.590;2023-03-30T09:08:15;16.95;;;7.53;;
72949;SDS011;64868;45.710;9.590;2023-03-30T09:10:51;15.63;;;6.72;;
72949;SDS011;64868;45.710;9.590;2023-03-30T09:13:23;15.93;;;7.05;;
72949;SDS011;64868;45.710;9.590;2023-03-30T09:18:53;24.38;;;8.43;;
72949;SDS011;64868;45.710;9.590;2023-03-30T09:21:30;18.23;;;7.68;;
72949;SDS011;64868;45.710;9.590;2023-03-30T09:24:01;19.50;;;8.20;;
72949;SDS011;64868;45.710;9.590;2023-03-30T09:29:48;16.63;;;7.03;;
72949;SDS011;64868;45.710;9.590;2023-03-30T09:32:23;20.45;;;6.60;;
72949;SDS011;64868;45.710;9.590;2023-03-30T09:35:05;17.73;;;6.47;;
72949;SDS011;64868;45.710;9.590;2023-03-30T09:37:43;14.75;;;6.80;;
72949;SDS011;64868;45.710;9.590;2023-03-30T09:43:02;20.25;;;8.75;;
72949;SDS011;64868;45.710;9.590;2023-03-30T09:45:40;20.33;;;8.68;;
72949;SDS011;64868;45.710;9.590;2023-03-30T09:48:14;19.02;;;8.85;;
72949;SDS011;64868;45.710;9.590;2023-03-30T09:50:47;22.90;;;7.57;;
72949;SDS011;64868;45.710;9.590;2023-03-30T09:53:26;16.40;;;8.63;;
72949;SDS011;64868;45.710;9.590;2023-03-30T09:56:00;17.80;;;7.88;;
72949;SDS011;64868;45.710;9.590;2023-03-30T09:58:36;19.55;;;9.07;;
72949;SDS011;64868;45.710;9.590;2023-03-30T10:01:12;17.10;;;8.73;;
72949;SDS011;64868;45.710;9.590;2023-03-30T10:03:45;15.55;;;8.18;;
72949;SDS011;64868;45.710;9.590;2023-03-30T10:06:51;19.38;;;8.05;;
72949;SDS011;64868;45.710;9.590;2023-03-30T10:09:23;17.23;;;7.10;;
72949;SDS011;64868;45.710;9.590;2023-03-30T10:11:51;13.35;;;7.00;;
72949;SDS011;64868;45.710;9.590;2023-03-30T10:14:33;14.40;;;6.43;;
72949;SDS011;64868;45.710;9.590;2023-03-30T10:17:06;15.07;;;6.95;;
72949;SDS011;64868;45.710;9.590;2023-03-30T10:19:44;14.63;;;6.90;;
72949;SDS011;64868;45.710;9.590;2023-03-30T10:22:17;11.93;;;6.60;;
72949;SDS011;64868;45.710;9.590;2023-03-30T10:24:53;14.13;;;6.63;;
72949;SDS011;64868;45.710;9.590;2023-03-30T10:27:31;10.75;;;6.70;;
72949;SDS011;64868;45.710;9.590;2023-03-30T10:30:07;11.52;;;6.10;;
72949;SDS011;64868;45.710;9.590;2023-03-30T10:32:39;15.98;;;6.93;;
72949;SDS011;64868;45.710;9.590;2023-03-30T10:35:15;18.88;;;7.38;;
72949;SDS011;64868;45.710;9.590;2023-03-30T10:37:50;13.70;;;6.57;;
72949;SDS011;64868;45.710;9.590;2023-03-30T10:40:22;12.38;;;6.18;;
72949;SDS011;64868;45.710;9.590;2023-03-30T10:42:55;13.15;;;6.10;;
72949;SDS011;64868;45.710;9.590;2023-03-30T10:45:29;13.70;;;6.63;;
72949;SDS011;64868;45.710;9.590;2023-03-30T10:53:36;11.00;;;5.47;;
72949;SDS011;64868;45.710;9.590;2023-03-30T10:56:27;11.23;;;5.60;;
72949;SDS011;64868;45.710;9.590;2023-03-30T10:59:15;12.32;;;6.10;;
72949;SDS011;64868;45.710;9.590;2023-03-30T11:04:43;21.00;;;9.55;;
72949;SDS011;64868;45.710;9.590;2023-03-30T11:07:29;15.55;;;8.77;;
72949;SDS011;64868;45.710;9.590;2023-03-30T11:10:48;16.80;;;8.45;;
72949;SDS011;64868;45.710;9.590;2023-03-30T11:18:41;21.08;;;10.80;;
72949;SDS011;64868;45.710;9.590;2023-03-30T11:21:16;16.20;;;10.20;;
72949;SDS011;64868;45.710;9.590;2023-03-30T11:23:56;20.17;;;11.30;;
72949;SDS011;64868;45.710;9.590;2023-03-30T11:26:37;17.55;;;11.00;;
72949;SDS011;64868;45.710;9.590;2023-03-30T11:32:14;25.10;;;10.73;;
72949;SDS011;64868;45.710;9.590;2023-03-30T11:40:28;16.42;;;10.43;;
72949;SDS011;64868;45.710;9.590;2023-03-30T11:43:22;19.48;;;12.57;;
72949;SDS011;64868;45.710;9.590;2023-03-30T11:46:03;20.85;;;11.52;;
72949;SDS011;64868;45.710;9.590;2023-03-30T11:54:30;22.23;;;12.63;;
72949;SDS011;64868;45.710;9.590;2023-03-30T12:11:40;18.02;;;8.52;;
72949;SDS011;64868;45.710;9.590;2023-03-30T12:14:21;17.13;;;8.50;;
72949;SDS011;64868;45.710;9.590;2023-03-30T12:22:42;15.50;;;5.95;;
72949;SDS011;64868;45.710;9.590;2023-03-30T12:28:06;10.02;;;5.75;;
72949;SDS011;64868;45.710;9.590;2023-03-30T12:30:44;12.07;;;5.20;;
72949;SDS011;64868;45.710;9.590;2023-03-30T12:33:30;12.13;;;5.40;;
72949;SDS011;64868;45.710;9.590;2023-03-30T12:36:19;11.82;;;4.95;;
72949;SDS011;64868;45.710;9.590;2023-03-30T12:39:03;12.63;;;6.22;;
72949;SDS011;64868;45.710;9.590;2023-03-30T12:41:50;15.30;;;10.85;;
72949;SDS011;64868;45.710;9.590;2023-03-30T12:47:15;11.88;;;6.43;;
72949;SDS011;64868;45.710;9.590;2023-03-30T12:53:13;13.80;;;5.85;;
72949;SDS011;64868;45.710;9.590;2023-03-30T12:55:52;12.85;;;5.38;;
72949;SDS011;64868;45.710;9.590;2023-03-30T13:01:21;12.82;;;5.70;;
72949;SDS011;64868;45.710;9.590;2023-03-30T13:03:51;11.43;;;5.18;;
72949;SDS011;64868;45.710;9.590;2023-03-30T13:06:36;13.52;;;6.07;;
72949;SDS011;64868;45.710;9.590;2023-03-30T13:12:25;13.38;;;5.85;;
72949;SDS011;64868;45.710;9.590;2023-03-30T13:14:50;10.52;;;5.20;;
72949;SDS011;64868;45.710;9.590;2023-03-30T13:17:48;13.35;;;5.22;;
72949;SDS011;64868;45.710;9.590;2023-03-30T13:20:30;12.52;;;5.38;;
72949;SDS011;64868;45.710;9.590;2023-03-30T13:23:23;13.13;;;5.97;;
72949;SDS011;64868;45.710;9.590;2023-03-30T13:26:03;10.88;;;4.57;;
72949;SDS011;64868;45.710;9.590;2023-03-30T13:28:35;14.68;;;5.53;;
72949;SDS011;64868;45.710;9.590;2023-03-30T13:31:39;12.63;;;6.05;;
72949;SDS011;64868;45.710;9.590;2023-03-30T13:37:15;12.32;;;6.30;;
72949;SDS011;64868;45.710;9.590;2023-03-30T13:48:34;11.48;;;5.30;;
72949;SDS011;64868;45.710;9.590;2023-03-30T13:51:10;10.73;;;5.50;;
72949;SDS011;64868;45.710;9.590;2023-03-30T13:53:43;11.02;;;5.63;;
72949;SDS011;64868;45.710;9.590;2023-03-30T13:56:18;12.48;;;5.75;;
72949;SDS011;64868;45.710;9.590;2023-03-30T13:59:01;10.32;;;4.43;;
72949;SDS011;64868;45.710;9.590;2023-03-30T14:01:32;9.25;;;5.03;;
72949;SDS011;64868;45.710;9.590;2023-03-30T14:04:04;8.63;;;4.50;;
72949;SDS011;64868;45.710;9.590;2023-03-30T14:06:40;11.93;;;5.00;;
72949;SDS011;64868;45.710;9.590;2023-03-30T14:09:17;10.07;;;4.82;;
72949;SDS011;64868;45.710;9.590;2023-03-30T14:11:52;11.10;;;5.15;;
72949;SDS011;64868;45.710;9.590;2023-03-30T14:14:27;10.82;;;4.93;;
72949;SDS011;64868;45.710;9.590;2023-03-30T14:17:04;11.27;;;6.13;;
72949;SDS011;64868;45.710;9.590;2023-03-30T14:19:41;11.23;;;5.70;;
72949;SDS011;64868;45.710;9.590;2023-03-30T14:22:23;11.52;;;5.43;;
72949;SDS011;64868;45.710;9.590;2023-03-30T14:25:03;19.27;;;6.15;;
72949;SDS011;64868;45.710;9.590;2023-03-30T14:27:45;9.75;;;5.63;;
72949;SDS011;64868;45.710;9.590;2023-03-30T14:30:21;12.05;;;4.90;;
72949;SDS011;64868;45.710;9.590;2023-03-30T14:33:13;13.55;;;5.55;;
72949;SDS011;64868;45.710;9.590;2023-03-30T14:35:49;10.45;;;4.95;;
72949;SDS011;64868;45.710;9.590;2023-03-30T14:38:24;14.57;;;5.72;;
72949;SDS011;64868;45.710;9.590;2023-03-30T14:41:21;13.40;;;5.55;;
72949;SDS011;64868;45.710;9.590;2023-03-30T14:43:52;8.70;;;4.70;;
72949;SDS011;64868;45.710;9.590;2023-03-30T14:46:24;10.65;;;5.75;;
72949;SDS011;64868;45.710;9.590;2023-03-30T14:49:00;11.60;;;4.30;;
72949;SDS011;64868;45.710;9.590;2023-03-30T14:51:40;11.35;;;4.82;;
72949;SDS011;64868;45.710;9.590;2023-03-30T14:54:17;9.27;;;4.70;;
72949;SDS011;64868;45.710;9.590;2023-03-30T14:56:56;10.13;;;4.72;;
72949;SDS011;64868;45.710;9.590;2023-03-30T14:59:27;11.00;;;5.28;;
72949;SDS011;64868;45.710;9.590;2023-03-30T15:01:58;11.57;;;5.47;;
72949;SDS011;64868;45.710;9.590;2023-03-30T15:04:33;12.52;;;6.45;;
72949;SDS011;64868;45.710;9.590;2023-03-30T15:07:08;15.38;;;7.22;;
72949;SDS011;64868;45.710;9.590;2023-03-30T15:09:39;12.80;;;6.47;;
72949;SDS011;64868;45.710;9.590;2023-03-30T15:12:27;11.82;;;5.88;;
72949;SDS011;64868;45.710;9.590;2023-03-30T15:15:02;14.45;;;7.43;;
72949;SDS011;64868;45.710;9.590;2023-03-30T15:17:34;13.63;;;6.65;;
72949;SDS011;64868;45.710;9.590;2023-03-30T15:20:09;11.38;;;5.95;;
72949;SDS011;64868;45.710;9.590;2023-03-30T15:22:43;13.38;;;7.05;;
72949;SDS011;64868;45.710;9.590;2023-03-30T15:25:20;16.23;;;7.65;;
72949;SDS011;64868;45.710;9.590;2023-03-30T15:28:13;12.55;;;7.13;;
72949;SDS011;64868;45.710;9.590;2023-03-30T15:30:43;14.63;;;8.05;;
72949;SDS011;64868;45.710;9.590;2023-03-30T15:33:20;14.77;;;7.60;;
72949;SDS011;64868;45.710;9.590;2023-03-30T15:36:00;17.98;;;8.20;;
72949;SDS011;64868;45.710;9.590;2023-03-30T15:38:42;13.60;;;7.68;;
72949;SDS011;64868;45.710;9.590;2023-03-30T15:41:17;15.70;;;8.32;;
72949;SDS011;64868;45.710;9.590;2023-03-30T15:43:57;15.68;;;7.85;;
72949;SDS011;64868;45.710;9.590;2023-03-30T15:46:38;13.50;;;8.00;;
72949;SDS011;64868;45.710;9.590;2023-03-30T15:49:18;15.30;;;7.97;;
72949;SDS011;64868;45.710;9.590;2023-03-30T15:51:57;17.25;;;8.15;;
72949;SDS011;64868;45.710;9.590;2023-03-30T15:54:40;17.38;;;9.73;;
72949;SDS011;64868;45.710;9.590;2023-03-30T15:57:36;15.25;;;8.10;;
72949;SDS011;64868;45.710;9.590;2023-03-30T16:00:16;13.52;;;7.28;;
72949;SDS011;64868;45.710;9.590;2023-03-30T16:02:57;14.57;;;7.40;;
72949;SDS011;64868;45.710;9.590;2023-03-30T16:05:30;16.95;;;8.93;;
72949;SDS011;64868;45.710;9.590;2023-03-30T16:08:07;16.35;;;9.00;;
72949;SDS011;64868;45.710;9.590;2023-03-30T16:10:38;20.38;;;8.90;;
72949;SDS011;64868;45.710;9.590;2023-03-30T16:13:15;15.25;;;7.82;;
72949;SDS011;64868;45.710;9.590;2023-03-30T16:15:50;14.57;;;7.40;;
72949;SDS011;64868;45.710;9.590;2023-03-30T16:18:24;16.98;;;8.50;;
72949;SDS011;64868;45.710;9.590;2023-03-30T16:20:56;15.32;;;7.82;;
72949;SDS011;64868;45.710;9.590;2023-03-30T16:23:27;14.02;;;7.07;;
72949;SDS011;64868;45.710;9.590;2023-03-30T16:25:57;14.52;;;7.05;;
72949;SDS011;64868;45.710;9.590;2023-03-30T16:28:29;13.52;;;6.40;;
72949;SDS011;64868;45.710;9.590;2023-03-30T16:31:00;14.75;;;6.03;;
72949;SDS011;64868;45.710;9.590;2023-03-30T16:33:34;14.95;;;6.90;;
72949;SDS011;64868;45.710;9.590;2023-03-30T16:36:04;11.85;;;6.45;;
72949;SDS011;64868;45.710;9.590;2023-03-30T16:38:38;15.80;;;6.60;;
72949;SDS011;64868;45.710;9.590;2023-03-30T16:41:08;12.20;;;7.20;;
72949;SDS011;64868;45.710;9.590;2023-03-30T16:43:42;13.07;;;7.28;;
72949;SDS011;64868;45.710;9.590;2023-03-30T16:46:16;15.45;;;7.20;;
72949;SDS011;64868;45.710;9.590;2023-03-30T16:48:48;10.27;;;6.13;;
72949;SDS011;64868;45.710;9.590;2023-03-30T16:51:17;15.57;;;6.90;;
72949;SDS011;64868;45.710;9.590;2023-03-30T16:53:50;17.50;;;6.90;;
72949;SDS011;64868;45.710;9.590;2023-03-30T16:56:23;13.57;;;7.53;;
72949;SDS011;64868;45.710;9.590;2023-03-30T16:58:53;13.68;;;7.10;;
72949;SDS011;64868;45.710;9.590;2023-03-30T17:01:26;16.55;;;7.55;;
72949;SDS011;64868;45.710;9.590;2023-03-30T17:03:58;16.92;;;8.25;;
72949;SDS011;64868;45.710;9.590;2023-03-30T17:06:36;19.73;;;9.05;;
72949;SDS011;64868;45.710;9.590;2023-03-30T17:09:08;14.95;;;7.93;;
72949;SDS011;64868;45.710;9.590;2023-03-30T17:11:37;14.13;;;7.32;;
72949;SDS011;64868;45.710;9.590;2023-03-30T17:14:07;19.55;;;9.85;;
72949;SDS011;64868;45.710;9.590;2023-03-30T17:16:38;29.90;;;12.25;;
72949;SDS011;64868;45.710;9.590;2023-03-30T17:19:15;19.50;;;8.98;;
72949;SDS011;64868;45.710;9.590;2023-03-30T17:21:47;19.98;;;8.88;;
72949;SDS011;64868;45.710;9.590;2023-03-30T17:24:15;20.30;;;10.75;;
72949;SDS011;64868;45.710;9.590;2023-03-30T17:26:41;26.42;;;13.95;;
72949;SDS011;64868;45.710;9.590;2023-03-30T17:29:14;30.13;;;13.90;;
72949;SDS011;64868;45.710;9.590;2023-03-30T17:31:47;20.95;;;11.70;;
72949;SDS011;64868;45.710;9.590;2023-03-30T17:34:17;16.05;;;8.73;;
72949;SDS011;64868;45.710;9.590;2023-03-30T17:36:45;17.58;;;9.02;;
72949;SDS011;64868;45.710;9.590;2023-03-30T17:39:17;17.85;;;8.40;;